Time;durP1;ratioP1;P1;durP2;ratioP2;P2;SDS_P1;SDS_P2;PMS_P1;PMS_P2;Temp;Humidity;BMP_temperature;BMP_pressure;BME280_temperature;BME280_humidity;BME280_pressure;Samples;Min_cycle;Max_cycle;Signal;HPM_P1;HPM_P2
2022/08/24 00:00:34;;;;;;;0.35;0.30;;;14.00;99.90;;;;;;5117656;28;20114;-73
2022/08/24 00:03:01;;;;;;;1.17;0.75;;;13.90;99.90;;;;;;5117597;28;20531;-73
2022/08/24 00:05:26;;;;;;;1.02;0.75;;;13.90;99.90;;;;;;5117626;28;20020;-74
2022/08/24 00:07:52;;;;;;;1.48;0.52;;;13.90;99.90;;;;;;5118567;28;20053;-72
2022/08/24 00:10:19;;;;;;;0.40;0.40;;;13.90;99.90;;;;;;5119395;28;20019;-74
2022/08/24 00:12:46;;;;;;;0.65;0.65;;;13.90;99.90;;;;;;5119981;28;20173;-73
2022/08/24 00:15:13;;;;;;;0.77;0.77;;;13.80;99.90;;;;;;5120193;28;20452;-73
2022/08/24 00:17:38;;;;;;;0.55;0.40;;;13.80;99.90;;;;;;5119611;28;20025;-74
2022/08/24 00:20:05;;;;;;;0.40;0.40;;;13.80;99.90;;;;;;5117500;28;20058;-73
2022/08/24 00:22:31;;;;;;;0.40;0.40;;;13.70;99.90;;;;;;5117448;28;20392;-74
2022/08/24 00:24:58;;;;;;;2.95;1.35;;;13.70;99.90;;;;;;5117484;28;20024;-73
2022/08/24 00:27:25;;;;;;;0.40;0.40;;;13.60;99.90;;;;;;5117021;28;20077;-74
2022/08/24 00:29:50;;;;;;;0.40;0.40;;;13.50;99.90;;;;;;5117097;28;20090;-76
2022/08/24 00:32:16;;;;;;;0.63;0.63;;;13.40;99.90;;;;;;5117164;28;20027;-74
2022/08/24 00:34:43;;;;;;;0.80;0.80;;;13.30;99.90;;;;;;5117050;28;20475;-74
2022/08/24 00:37:08;;;;;;;1.88;0.40;;;13.30;99.90;;;;;;5117077;28;20012;-78
2022/08/24 00:39:34;;;;;;;0.95;0.95;;;13.30;99.90;;;;;;5116963;28;20030;-75
2022/08/24 00:42:00;;;;;;;0.40;0.40;;;13.30;99.90;;;;;;5116975;28;20426;-77
2022/08/24 00:44:26;;;;;;;1.13;0.60;;;13.30;99.90;;;;;;5117051;28;20027;-75
2022/08/24 00:47:21;;;;;;;0.32;0.32;;;13.30;99.90;;;;;;5116760;28;20030;-74
2022/08/24 00:49:59;;;;;;;1.60;1.05;;;13.40;99.90;;;;;;5116592;28;20490;-74
2022/08/24 00:52:39;;;;;;;0.80;0.30;;;13.40;99.90;;;;;;5116701;28;20065;-76
2022/08/24 00:55:27;;;;;;;0.43;0.43;;;13.40;99.90;;;;;;5098268;28;20043;-75
2022/08/24 00:57:58;;;;;;;1.17;0.82;;;13.40;99.90;;;;;;5116461;28;20395;-74
2022/08/24 01:00:33;;;;;;;0.45;0.45;;;13.40;99.90;;;;;;5116496;28;20034;-73
2022/08/24 01:03:03;;;;;;;1.85;1.20;;;13.30;99.90;;;;;;5116370;28;20422;-73
2022/08/24 01:05:34;;;;;;;0.52;0.52;;;13.30;99.90;;;;;;5116368;28;20023;-73
2022/08/24 01:08:01;;;;;;;0.60;0.60;;;13.30;99.90;;;;;;5116185;28;20020;-74
2022/08/24 01:10:30;;;;;;;2.42;0.88;;;13.20;99.90;;;;;;5115213;28;20111;-73
2022/08/24 01:12:59;;;;;;;0.80;0.80;;;13.20;99.90;;;;;;5116159;28;20019;-76
2022/08/24 01:15:25;;;;;;;0.45;0.45;;;13.20;99.90;;;;;;5116331;28;20495;-74
2022/08/24 01:20:35;;;;;;;2.10;0.70;;;13.30;99.90;;;;;;5116321;28;20575;-73
2022/08/24 01:23:14;;;;;;;0.47;0.47;;;13.30;99.90;;;;;;5115893;28;20055;-77
2022/08/24 01:25:42;;;;;;;0.70;0.70;;;13.30;99.90;;;;;;5115887;28;20376;-74
2022/08/24 01:28:14;;;;;;;0.65;0.65;;;13.30;99.90;;;;;;5115858;28;20047;-73
2022/08/24 01:30:40;;;;;;;0.88;0.63;;;13.30;99.90;;;;;;5115894;28;20094;-74
2022/08/24 01:33:09;;;;;;;1.05;0.90;;;13.20;99.90;;;;;;5115946;28;20205;-76
2022/08/24 01:35:38;;;;;;;0.55;0.55;;;13.20;99.90;;;;;;5116109;28;20533;-73
2022/08/24 01:38:10;;;;;;;0.40;0.40;;;13.20;99.90;;;;;;5115974;28;20023;-77
2022/08/24 01:40:41;;;;;;;0.65;0.65;;;13.10;99.90;;;;;;5115689;28;20046;-73
2022/08/24 01:43:07;;;;;;;0.73;0.57;;;13.10;99.90;;;;;;5115596;28;20034;-74
2022/08/24 01:45:33;;;;;;;0.40;0.40;;;13.10;99.90;;;;;;5115595;28;20476;-75
2022/08/24 01:48:01;;;;;;;0.57;0.57;;;13.10;99.90;;;;;;5115478;28;20027;-73
2022/08/24 01:50:28;;;;;;;0.63;0.63;;;13.10;99.90;;;;;;5115595;28;20046;-73
2022/08/24 01:52:56;;;;;;;0.98;0.98;;;13.10;99.90;;;;;;5096935;28;20015;-73
2022/08/24 01:55:22;;;;;;;1.25;0.77;;;13.10;99.90;;;;;;5115881;28;20027;-73
2022/08/24 01:57:48;;;;;;;0.90;0.90;;;13.10;99.90;;;;;;5115275;28;20031;-76
2022/08/24 02:00:14;;;;;;;0.43;0.43;;;13.10;99.90;;;;;;5115103;28;20118;-73
2022/08/24 02:02:41;;;;;;;1.00;0.90;;;13.20;99.90;;;;;;5115142;28;20102;-74
2022/08/24 02:05:09;;;;;;;0.52;0.52;;;13.10;99.90;;;;;;5115202;28;20055;-76
2022/08/24 02:07:35;;;;;;;0.60;0.60;;;13.10;99.90;;;;;;5115169;28;20024;-74
2022/08/24 02:10:00;;;;;;;1.08;1.08;;;13.10;99.90;;;;;;5115235;28;20023;-74
2022/08/24 02:12:26;;;;;;;0.47;0.47;;;13.10;99.90;;;;;;5115145;28;20027;-74
2022/08/24 02:14:52;;;;;;;0.90;0.90;;;13.10;99.90;;;;;;5114963;28;20019;-74
2022/08/24 02:17:18;;;;;;;1.02;1.02;;;13.00;99.90;;;;;;5115014;28;20055;-75
2022/08/24 02:19:44;;;;;;;0.47;0.47;;;13.00;99.90;;;;;;5114932;28;20019;-76
2022/08/24 02:22:10;;;;;;;0.55;0.52;;;13.00;99.90;;;;;;5114686;28;20034;-74
2022/08/24 02:24:36;;;;;;;1.33;0.93;;;13.00;99.90;;;;;;5096619;28;20028;-75
2022/08/24 02:27:02;;;;;;;0.98;0.98;;;13.00;99.90;;;;;;5114932;28;20063;-75
2022/08/24 02:29:28;;;;;;;0.55;0.55;;;13.00;99.90;;;;;;5114908;28;20479;-73
2022/08/24 02:31:54;;;;;;;0.63;0.63;;;13.00;99.90;;;;;;5114681;28;20020;-76
2022/08/24 02:34:20;;;;;;;3.92;1.40;;;13.00;99.90;;;;;;5114973;28;20106;-76
2022/08/24 02:36:46;;;;;;;1.02;1.02;;;13.10;99.90;;;;;;5114474;28;20049;-74
2022/08/24 02:39:12;;;;;;;0.60;0.60;;;13.10;99.90;;;;;;5114558;28;20035;-76
2022/08/24 02:41:38;;;;;;;0.70;0.70;;;13.00;99.90;;;;;;5114428;28;20594;-76
2022/08/24 02:44:04;;;;;;;1.08;0.85;;;13.00;99.90;;;;;;5114545;28;20102;-76
2022/08/24 02:46:30;;;;;;;0.70;0.70;;;13.00;99.90;;;;;;5114432;28;20437;-73
2022/08/24 02:48:58;;;;;;;0.93;0.93;;;12.90;99.90;;;;;;5114420;28;20020;-76
2022/08/24 02:51:33;;;;;;;0.50;0.50;;;12.90;99.90;;;;;;5114406;28;20385;-73
2022/08/24 02:54:01;;;;;;;1.27;0.70;;;12.90;99.90;;;;;;5114177;28;20044;-74
2022/08/24 02:56:28;;;;;;;0.80;0.80;;;12.90;99.90;;;;;;5114168;28;20024;-76
2022/08/24 02:58:55;;;;;;;0.38;0.38;;;12.80;99.90;;;;;;5114246;28;20020;-75
2022/08/24 03:01:21;;;;;;;0.93;0.85;;;12.80;99.90;;;;;;5096191;28;20112;-76
2022/08/24 03:03:47;;;;;;;0.55;0.55;;;12.80;99.90;;;;;;5114229;28;20486;-74
2022/08/24 03:06:13;;;;;;;0.60;0.60;;;12.70;99.90;;;;;;5114173;28;20016;-74
2022/08/24 03:08:39;;;;;;;0.88;0.88;;;12.70;99.90;;;;;;5114066;28;20022;-73
2022/08/24 03:11:07;;;;;;;0.85;0.60;;;12.70;99.90;;;;;;5113959;28;20094;-77
2022/08/24 03:13:34;;;;;;;0.90;0.50;;;12.70;99.90;;;;;;5114036;28;20054;-73
2022/08/24 03:16:00;;;;;;;1.10;0.60;;;12.80;99.90;;;;;;5114059;28;20492;-75
2022/08/24 03:18:26;;;;;;;1.40;1.30;;;12.70;99.90;;;;;;5114088;28;20162;-74
2022/08/24 03:20:56;;;;;;;1.58;1.48;;;12.70;99.90;;;;;;5114020;28;20024;-75
2022/08/24 03:23:22;;;;;;;1.08;1.00;;;12.60;99.90;;;;;;5114186;28;20422;-72
2022/08/24 03:25:50;;;;;;;0.60;0.60;;;12.60;99.90;;;;;;5113951;28;20475;-73
2022/08/24 03:28:17;;;;;;;0.75;0.75;;;12.50;99.90;;;;;;5113921;28;20020;-74
2022/08/24 03:30:43;;;;;;;0.80;0.80;;;12.50;99.90;;;;;;5113909;28;20019;-75
2022/08/24 03:33:09;;;;;;;0.30;0.30;;;12.50;99.90;;;;;;5114753;28;20044;-77
2022/08/24 03:35:35;;;;;;;1.75;0.77;;;12.40;99.90;;;;;;5118114;28;20484;-73
2022/08/24 03:38:01;;;;;;;1.75;1.15;;;12.30;99.90;;;;;;5118098;28;20026;-74
2022/08/24 03:40:27;;;;;;;1.13;1.02;;;12.30;99.90;;;;;;5118026;28;20397;-75
2022/08/24 03:42:53;;;;;;;0.63;0.57;;;12.30;99.90;;;;;;5099743;28;20023;-73
2022/08/24 03:45:20;;;;;;;0.55;0.55;;;12.30;99.90;;;;;;5118350;28;20054;-77
2022/08/24 03:47:46;;;;;;;0.57;0.57;;;12.30;99.90;;;;;;5117897;28;20023;-73
2022/08/24 03:50:12;;;;;;;0.50;0.50;;;12.20;99.90;;;;;;5117676;28;20016;-77
2022/08/24 03:52:38;;;;;;;1.27;0.63;;;12.20;99.90;;;;;;5117903;28;20106;-75
2022/08/24 03:55:05;;;;;;;1.25;0.80;;;12.10;99.90;;;;;;5099371;28;20515;-74
2022/08/24 03:57:31;;;;;;;0.60;0.60;;;12.20;99.90;;;;;;5117760;28;20086;-75
2022/08/24 03:59:57;;;;;;;1.15;1.00;;;12.20;99.90;;;;;;5117294;28;20027;-73
2022/08/24 04:02:23;;;;;;;1.13;0.90;;;12.20;99.90;;;;;;5117524;28;20080;-73
2022/08/24 04:04:49;;;;;;;0.88;0.85;;;12.20;99.90;;;;;;5117595;28;20043;-77
2022/08/24 04:07:16;;;;;;;3.38;0.88;;;12.10;99.90;;;;;;5117525;28;20019;-74
2022/08/24 04:09:41;;;;;;;2.30;1.13;;;12.00;99.90;;;;;;5099007;28;20020;-77
2022/08/24 04:12:07;;;;;;;3.10;0.82;;;12.00;99.90;;;;;;5117437;28;20072;-75
2022/08/24 04:14:34;;;;;;;0.52;0.52;;;12.00;99.90;;;;;;5117311;28;20098;-74
2022/08/24 04:17:00;;;;;;;0.40;0.40;;;11.90;99.90;;;;;;5117321;28;20364;-73
2022/08/24 04:19:26;;;;;;;0.80;0.80;;;11.90;99.90;;;;;;5117327;28;20468;-76
2022/08/24 04:21:52;;;;;;;0.63;0.63;;;12.00;99.90;;;;;;5098924;28;20365;-77
2022/08/24 04:24:19;;;;;;;0.50;0.50;;;12.00;99.90;;;;;;5099316;28;20027;-73
2022/08/24 04:26:45;;;;;;;1.17;1.17;;;11.90;99.90;;;;;;5117087;28;20024;-75
2022/08/24 04:29:15;;;;;;;0.85;0.77;;;11.90;99.90;;;;;;5098977;28;20047;-73
2022/08/24 04:31:43;;;;;;;4.55;1.65;;;11.80;99.90;;;;;;5117069;28;20471;-74
2022/08/24 04:34:09;;;;;;;0.70;0.70;;;11.80;99.90;;;;;;5116962;28;20413;-76
2022/08/24 04:36:35;;;;;;;1.40;0.93;;;11.70;99.90;;;;;;5117011;28;20027;-75
2022/08/24 04:39:02;;;;;;;3.80;1.00;;;11.70;99.90;;;;;;5116765;28;20031;-73
2022/08/24 04:41:28;;;;;;;0.95;0.88;;;11.70;99.90;;;;;;5116819;28;20376;-76
2022/08/24 04:43:54;;;;;;;0.50;0.50;;;11.70;99.90;;;;;;5116398;28;20073;-73
2022/08/24 04:46:19;;;;;;;1.10;1.00;;;11.80;99.90;;;;;;5097262;28;20028;-74
2022/08/24 04:48:47;;;;;;;0.50;0.50;;;11.70;99.90;;;;;;5116714;28;20019;-76
2022/08/24 04:51:16;;;;;;;1.67;0.90;;;11.70;99.90;;;;;;5116793;28;20019;-74
2022/08/24 04:53:43;;;;;;;0.75;0.75;;;11.80;99.90;;;;;;5098188;28;20496;-74
2022/08/24 04:56:19;;;;;;;0.80;0.80;;;11.80;99.90;;;;;;5116778;28;20031;-76
2022/08/24 04:58:44;;;;;;;0.43;0.43;;;11.80;99.90;;;;;;5116591;28;20085;-77
2022/08/24 05:01:18;;;;;;;0.77;0.77;;;11.90;99.90;;;;;;5116342;28;20036;-77
2022/08/24 05:03:45;;;;;;;1.45;1.23;;;11.90;99.90;;;;;;5116293;28;20022;-76
2022/08/24 05:06:13;;;;;;;0.60;0.52;;;11.90;99.90;;;;;;5116666;28;20027;-76
2022/08/24 05:08:39;;;;;;;0.52;0.52;;;11.90;99.90;;;;;;5116361;28;20055;-73
2022/08/24 05:11:08;;;;;;;0.90;0.90;;;11.90;99.90;;;;;;5116611;28;20051;-74
2022/08/24 05:13:37;;;;;;;0.73;0.70;;;11.90;99.90;;;;;;5116400;28;20030;-74
2022/08/24 05:16:07;;;;;;;0.60;0.60;;;12.00;99.90;;;;;;5116277;28;20023;-73
2022/08/24 05:18:33;;;;;;;0.88;0.88;;;12.00;99.90;;;;;;5116015;28;20035;-74
2022/08/24 05:20:59;;;;;;;0.80;0.80;;;11.40;99.90;;;;;;5115852;28;20043;-76
2022/08/24 05:23:26;;;;;;;0.60;0.60;;;12.20;99.90;;;;;;5116274;28;20024;-73
2022/08/24 05:25:51;;;;;;;0.98;0.95;;;12.30;99.90;;;;;;5115844;28;20031;-75
2022/08/24 05:28:18;;;;;;;0.80;0.80;;;12.40;99.90;;;;;;5116039;28;20414;-74
2022/08/24 05:30:43;;;;;;;0.75;0.73;;;12.50;99.90;;;;;;5116164;28;20432;-73
2022/08/24 05:33:10;;;;;;;0.50;0.50;;;12.60;99.90;;;;;;5115803;28;20055;-74
2022/08/24 05:35:39;;;;;;;0.70;0.70;;;12.60;99.90;;;;;;5116062;28;20491;-78
2022/08/24 05:38:05;;;;;;;2.30;0.95;;;12.80;99.90;;;;;;5115706;28;20106;-76
2022/08/24 05:40:31;;;;;;;1.50;0.68;;;12.80;99.90;;;;;;5115883;28;20115;-75
2022/08/24 05:42:57;;;;;;;2.17;0.73;;;12.90;99.90;;;;;;5115727;28;20472;-74
2022/08/24 05:45:23;;;;;;;2.17;1.02;;;13.00;99.90;;;;;;5115695;28;20115;-74
2022/08/24 05:47:49;;;;;;;0.75;0.75;;;13.10;99.90;;;;;;5115568;28;20019;-75
2022/08/24 05:50:15;;;;;;;0.50;0.50;;;13.20;99.90;;;;;;5115617;28;20088;-74
2022/08/24 05:52:40;;;;;;;2.17;0.40;;;13.30;99.90;;;;;;5115532;28;20020;-76
2022/08/24 05:55:07;;;;;;;0.85;0.82;;;13.40;99.90;;;;;;5115021;28;20044;-76
2022/08/24 05:57:34;;;;;;;0.80;0.80;;;13.50;99.90;;;;;;5114659;28;20023;-77
2022/08/24 06:00:01;;;;;;;1.00;0.60;;;13.60;99.90;;;;;;5115117;28;20030;-75
2022/08/24 06:02:27;;;;;;;0.40;0.40;;;13.70;99.90;;;;;;5114988;28;20372;-77
2022/08/24 06:04:53;;;;;;;15.20;1.00;;;13.80;99.90;;;;;;5120246;28;20027;-74
2022/08/24 06:07:19;;;;;;;0.60;0.60;;;13.90;99.90;;;;;;5125120;28;20095;-74
2022/08/24 06:09:44;;;;;;;0.40;0.40;;;14.00;99.90;;;;;;5124983;28;20027;-75
2022/08/24 06:12:11;;;;;;;0.50;0.50;;;14.10;99.90;;;;;;5124918;28;20315;-74
2022/08/24 06:14:37;;;;;;;0.65;0.55;;;14.30;99.90;;;;;;5121859;28;20842;-76
2022/08/24 06:17:07;;;;;;;0.60;0.60;;;14.30;99.90;;;;;;5114580;28;20576;-74
2022/08/24 06:19:34;;;;;;;0.60;0.60;;;14.50;99.90;;;;;;5114823;28;20073;-74
2022/08/24 06:22:00;;;;;;;1.58;1.42;;;14.70;99.90;;;;;;5096217;28;20464;-75
2022/08/24 06:27:22;;;;;;;1.65;1.13;;;15.20;99.90;;;;;;5114796;28;20037;-74
2022/08/24 06:29:53;;;;;;;0.77;0.77;;;15.30;99.90;;;;;;5114485;28;20039;-75
2022/08/24 06:32:19;;;;;;;0.93;0.93;;;15.50;99.90;;;;;;5114389;28;20038;-75
2022/08/24 06:34:45;;;;;;;0.60;0.60;;;15.70;99.90;;;;;;5096162;28;20039;-77
2022/08/24 06:37:12;;;;;;;0.75;0.75;;;15.90;99.90;;;;;;5096147;28;20020;-75
2022/08/24 06:39:38;;;;;;;1.35;1.20;;;16.10;99.90;;;;;;5095950;28;20023;-75
2022/08/24 06:42:04;;;;;;;6.35;1.08;;;16.30;99.90;;;;;;5114260;28;20035;-78
2022/08/24 06:44:30;;;;;;;0.60;0.60;;;16.60;99.90;;;;;;5113901;28;20044;-74
2022/08/24 06:46:56;;;;;;;0.52;0.43;;;16.80;99.90;;;;;;5113510;28;20024;-74
2022/08/24 06:49:23;;;;;;;0.45;0.45;;;17.10;99.90;;;;;;5095383;28;20034;-74
2022/08/24 06:51:49;;;;;;;1.90;0.77;;;17.20;99.90;;;;;;5113204;28;20429;-75
2022/08/24 06:54:14;;;;;;;0.93;0.93;;;17.60;99.90;;;;;;5113253;28;20040;-74
2022/08/24 06:56:40;;;;;;;1.05;0.93;;;17.70;99.90;;;;;;5094911;28;20487;-75
2022/08/24 06:59:06;;;;;;;0.73;0.73;;;17.90;99.90;;;;;;5113340;28;20480;-74
2022/08/24 07:01:31;;;;;;;2.30;0.95;;;18.00;99.90;;;;;;5115032;28;20027;-75
2022/08/24 07:03:57;;;;;;;0.88;0.75;;;18.10;99.90;;;;;;5113070;28;20059;-74
2022/08/24 07:06:24;;;;;;;0.70;0.70;;;18.20;99.90;;;;;;5116997;28;20038;-74
2022/08/24 07:08:51;;;;;;;0.60;0.60;;;18.30;99.90;;;;;;5122644;28;20016;-73
2022/08/24 07:11:18;;;;;;;0.75;0.75;;;18.40;99.90;;;;;;5099666;28;20349;-75
2022/08/24 07:13:46;;;;;;;0.35;0.35;;;18.60;99.90;;;;;;5119865;28;20032;-73
2022/08/24 07:16:12;;;;;;;0.30;0.30;;;18.70;99.90;;;;;;5124426;28;20008;-79
2022/08/24 07:18:39;;;;;;;1.60;1.50;;;18.80;99.90;;;;;;5123461;28;20026;-76
2022/08/24 07:21:05;;;;;;;0.80;0.80;;;18.80;99.90;;;;;;5123088;28;20092;-75
2022/08/24 07:23:31;;;;;;;1.30;1.20;;;18.90;99.90;;;;;;5104880;28;20020;-76
2022/08/24 07:26:08;;;;;;;0.20;0.20;;;19.00;99.90;;;;;;5106259;28;20026;-78
2022/08/24 07:28:38;;;;;;;0.50;0.50;;;19.20;99.90;;;;;;5122986;28;20082;-78
2022/08/24 07:31:05;;;;;;;3.63;0.68;;;19.30;99.90;;;;;;5118735;28;20034;-76
2022/08/24 07:33:32;;;;;;;1.45;0.65;;;19.40;99.90;;;;;;5120929;28;20015;-75
2022/08/24 07:35:58;;;;;;;0.38;0.38;;;19.60;99.90;;;;;;5117932;28;20484;-75
2022/08/24 07:38:25;;;;;;;0.98;0.93;;;19.70;99.90;;;;;;5121071;28;20026;-76
2022/08/24 07:40:51;;;;;;;0.90;0.90;;;19.80;99.90;;;;;;5122724;28;20028;-81
2022/08/24 07:43:18;;;;;;;0.47;0.47;;;19.90;99.90;;;;;;5123449;28;20016;-76
2022/08/24 07:45:44;;;;;;;2.90;0.65;;;20.10;99.90;;;;;;5113684;28;20472;-77
2022/08/24 07:48:10;;;;;;;0.88;0.30;;;20.10;99.90;;;;;;5113500;28;20042;-79
2022/08/24 07:50:36;;;;;;;1.42;1.33;;;20.30;99.90;;;;;;5095162;28;20460;-79
2022/08/24 07:53:01;;;;;;;0.47;0.47;;;20.60;99.90;;;;;;5113572;28;20034;-77
2022/08/24 07:55:27;;;;;;;0.40;0.35;;;20.80;99.90;;;;;;5113750;28;20032;-78
2022/08/24 07:57:53;;;;;;;2.60;0.50;;;21.10;99.90;;;;;;5113354;28;20023;-79
2022/08/24 08:00:20;;;;;;;0.52;0.40;;;21.20;99.90;;;;;;5113184;28;20038;-75
2022/08/24 08:03:03;;;;;;;0.30;0.30;;;21.20;99.90;;;;;;5112268;27;20396;-77
2022/08/24 08:05:29;;;;;;;1.40;0.90;;;21.30;99.90;;;;;;5115120;28;20035;-79
2022/08/24 08:07:58;;;;;;;0.52;0.52;;;21.40;99.90;;;;;;5110992;28;20024;-78
2022/08/24 08:10:24;;;;;;;0.65;0.57;;;21.60;99.90;;;;;;5112876;28;20051;-76
2022/08/24 08:12:49;;;;;;;0.50;0.50;;;21.60;99.90;;;;;;5109828;28;20039;-78
2022/08/24 08:15:15;;;;;;;0.38;0.38;;;21.90;99.90;;;;;;5117095;28;20016;-76
2022/08/24 08:17:41;;;;;;;0.70;0.70;;;22.00;99.90;;;;;;5119674;28;20258;-77
2022/08/24 08:20:08;;;;;;;0.60;0.60;;;22.40;99.90;;;;;;5121387;28;20016;-78
2022/08/24 08:25:18;;;;;;;0.57;0.57;;;24.20;92.90;;;;;;5115859;28;20367;-78
2022/08/24 08:27:45;;;;;;;2.60;1.58;;;25.50;84.30;;;;;;5110570;28;20106;-76
2022/08/24 08:30:11;;;;;;;0.95;0.95;;;26.50;70.70;;;;;;5112595;28;20087;-78
2022/08/24 08:32:37;;;;;;;1.15;1.15;;;27.50;64.70;;;;;;5111345;28;20051;-79
2022/08/24 08:35:03;;;;;;;0.47;0.40;;;28.40;61.50;;;;;;5110583;28;20028;-78
2022/08/24 08:37:30;;;;;;;0.30;0.30;;;29.10;58.90;;;;;;5113436;28;20076;-77
2022/08/24 08:39:56;;;;;;;0.52;0.52;;;29.40;57.70;;;;;;5119670;28;20023;-78
2022/08/24 08:43:10;;;;;;;0.40;0.40;;;29.80;54.60;;;;;;5110433;28;20400;-77
2022/08/24 08:46:02;;;;;;;2.67;0.65;;;30.10;53.10;;;;;;5092505;28;20044;-79
2022/08/24 08:48:57;;;;;;;2.72;0.60;;;29.20;55.60;;;;;;5110313;28;20099;-79
2022/08/24 08:51:35;;;;;;;1.00;0.50;;;29.60;54.50;;;;;;5110332;28;20027;-78
2022/08/24 08:54:29;;;;;;;0.40;0.30;;;29.70;54.90;;;;;;5110019;28;20069;-76
2022/08/24 08:57:00;;;;;;;0.38;0.38;;;29.70;53.20;;;;;;5108479;28;20480;-76
2022/08/24 08:59:44;;;;;;;0.40;0.40;;;29.80;52.80;;;;;;5108544;28;20118;-77
2022/08/24 09:02:18;;;;;;;0.43;0.40;;;29.80;53.40;;;;;;5123169;28;20422;-76
2022/08/24 09:05:15;;;;;;;0.35;0.35;;;29.40;55.80;;;;;;5112056;28;20020;-74
2022/08/24 09:07:57;;;;;;;1.15;0.80;;;28.80;54.10;;;;;;5112145;28;20061;-77
2022/08/24 09:10:41;;;;;;;0.50;0.40;;;28.60;53.20;;;;;;5130371;28;20027;-79
2022/08/24 09:13:36;;;;;;;0.40;0.40;;;28.70;53.10;;;;;;5123709;28;20073;-79
2022/08/24 09:16:17;;;;;;;0.75;0.60;;;28.80;52.40;;;;;;5116393;28;20031;-78
2022/08/24 09:19:16;;;;;;;0.80;0.75;;;28.90;52.90;;;;;;5098501;28;20120;-78
2022/08/24 09:21:51;;;;;;;0.40;0.32;;;28.50;52.90;;;;;;5116332;28;20372;-79
2022/08/24 09:24:35;;;;;;;9.30;1.80;;;28.20;54.00;;;;;;5119141;28;20020;-78
2022/08/24 09:27:18;;;;;;;0.40;0.40;;;28.10;54.10;;;;;;5117862;28;20472;-78
2022/08/24 09:30:03;;;;;;;1.10;0.43;;;27.90;55.00;;;;;;5098506;28;20019;-79
2022/08/24 09:32:47;;;;;;;1.15;1.15;;;28.40;55.90;;;;;;5122993;28;20371;-75
2022/08/24 09:35:17;;;;;;;0.38;0.32;;;28.50;54.60;;;;;;5118291;28;20015;-74
2022/08/24 09:37:59;;;;;;;1.13;0.38;;;28.30;52.00;;;;;;5097706;28;20035;-75
2022/08/24 09:40:36;;;;;;;1.75;0.63;;;27.40;53.50;;;;;;5097881;28;20024;-79
2022/08/24 09:43:07;;;;;;;1.80;0.70;;;27.90;54.60;;;;;;5098001;28;20035;-74
2022/08/24 09:45:54;;;;;;;0.40;0.40;;;28.20;54.60;;;;;;5116136;28;20089;-77
2022/08/24 09:48:44;;;;;;;0.30;0.30;;;28.50;54.60;;;;;;5097702;28;20118;-76
2022/08/24 09:51:47;;;;;;;4.18;0.50;;;28.70;53.10;;;;;;5115842;28;20019;-74
2022/08/24 09:54:19;;;;;;;0.75;0.60;;;28.60;54.70;;;;;;5115893;28;20413;-74
2022/08/24 09:57:03;;;;;;;1.02;1.02;;;28.50;56.00;;;;;;5115806;28;20464;-78
2022/08/24 10:00:11;;;;;;;4.43;0.68;;;28.80;54.70;;;;;;5097448;28;20456;-76
2022/08/24 10:03:00;;;;;;;0.50;0.50;;;29.00;54.90;;;;;;5115386;28;20046;-80
2022/08/24 10:05:48;;;;;;;0.20;0.20;;;29.40;53.20;;;;;;5097077;28;20016;-74
2022/08/24 10:08:29;;;;;;;0.30;0.30;;;29.30;51.80;;;;;;5115511;28;20023;-74
2022/08/24 10:11:03;;;;;;;0.40;0.40;;;29.00;55.70;;;;;;5115405;28;20030;-75
2022/08/24 10:14:08;;;;;;;0.93;0.25;;;28.80;52.80;;;;;;5097067;28;20035;-75
2022/08/24 10:17:07;;;;;;;0.40;0.40;;;28.80;55.90;;;;;;5115047;28;20028;-74
2022/08/24 10:19:46;;;;;;;0.20;0.20;;;28.50;54.30;;;;;;5096997;28;20089;-75
2022/08/24 10:22:30;;;;;;;;;;;28.50;53.50;;;;;;5115585;28;20031;-79
2022/08/24 10:25:14;;;;;;;0.35;0.35;;;28.90;54.30;;;;;;5095986;28;20356;-77
2022/08/24 10:28:02;;;;;;;0.32;0.32;;;28.90;53.70;;;;;;5114978;28;20012;-75
2022/08/24 10:30:46;;;;;;;0.38;0.38;;;29.10;53.60;;;;;;5096677;28;20042;-75
2022/08/24 10:33:16;;;;;;;0.60;0.40;;;29.40;52.20;;;;;;5114947;28;20434;-73
2022/08/24 10:36:04;;;;;;;0.70;0.70;;;29.80;52.40;;;;;;5114740;28;20024;-77
2022/08/24 10:41:29;;;;;;;0.53;0.53;;;30.20;51.00;;;;;;5114892;28;20092;-75
2022/08/24 10:44:30;;;;;;;0.40;0.40;;;30.50;49.50;;;;;;5114704;28;20023;-75
2022/08/24 10:47:05;;;;;;;0.57;0.40;;;30.20;50.70;;;;;;5114805;28;20047;-75
2022/08/24 10:49:34;;;;;;;0.40;0.40;;;30.10;51.00;;;;;;5114866;28;20028;-79
2022/08/24 10:52:21;;;;;;;0.52;0.30;;;30.10;48.30;;;;;;5096408;28;20092;-75
2022/08/24 10:54:47;;;;;;;0.40;0.30;;;30.20;51.00;;;;;;5096211;28;20028;-76
2022/08/24 10:57:33;;;;;;;0.60;0.60;;;30.60;50.00;;;;;;5096039;28;20020;-77
2022/08/24 11:00:13;;;;;;;0.40;0.40;;;30.90;47.00;;;;;;5114424;28;20016;-77
2022/08/24 11:02:41;;;;;;;0.60;0.35;;;31.20;48.30;;;;;;5114141;28;20044;-76
2022/08/24 11:05:26;;;;;;;0.57;0.57;;;31.20;48.60;;;;;;5114232;28;20425;-78
2022/08/24 11:08:03;;;;;;;2.10;0.63;;;31.40;47.00;;;;;;5114315;28;20149;-75
2022/08/24 11:10:33;;;;;;;0.80;0.80;;;30.80;47.20;;;;;;5114370;28;20106;-76
2022/08/24 11:13:16;;;;;;;3.45;1.65;;;30.50;48.60;;;;;;5114382;28;20027;-75
2022/08/24 11:15:54;;;;;;;0.30;0.30;;;30.40;48.70;;;;;;5096053;28;20395;-76
2022/08/24 11:18:21;;;;;;;0.20;0.20;;;29.80;47.80;;;;;;5114555;28;20085;-78
2022/08/24 11:20:50;;;;;;;0.38;0.35;;;30.00;47.30;;;;;;5114115;28;20030;-75
2022/08/24 11:23:33;;;;;;;1.55;0.40;;;30.50;46.90;;;;;;5095818;28;20050;-75
2022/08/24 11:26:20;;;;;;;2.20;0.70;;;31.20;45.80;;;;;;5095582;28;20023;-76
2022/08/24 11:28:52;;;;;;;0.40;0.40;;;31.50;47.30;;;;;;5113864;28;20024;-74
2022/08/24 11:31:42;;;;;;;0.50;0.50;;;32.10;46.00;;;;;;5114003;28;20079;-76
2022/08/24 11:34:14;;;;;;;0.20;0.20;;;32.60;45.70;;;;;;5085939;28;20028;-79
2022/08/24 11:36:40;;;;;;;0.40;0.40;;;33.00;44.80;;;;;;5113752;28;20107;-81
2022/08/24 11:39:25;;;;;;;0.30;0.30;;;33.50;43.40;;;;;;5114036;28;20476;-79
2022/08/24 11:42:06;;;;;;;0.90;0.45;;;33.80;41.70;;;;;;5113565;28;20400;-80
2022/08/24 11:44:56;;;;;;;0.13;0.13;;;33.30;46.00;;;;;;5113725;28;20042;-78
2022/08/24 11:47:51;;;;;;;0.50;0.50;;;33.20;43.80;;;;;;5113655;28;20061;-75
2022/08/24 11:51:02;;;;;;;0.20;0.20;;;33.10;45.10;;;;;;5088386;28;20118;-79
2022/08/24 11:53:46;;;;;;;0.30;0.30;;;33.60;44.30;;;;;;5030948;28;20547;-76
2022/08/24 11:56:56;;;;;;;1.55;0.80;;;34.00;40.60;;;;;;5030867;28;20026;-75
2022/08/24 11:59:52;;;;;;;0.20;0.20;;;34.40;42.10;;;;;;5090509;28;20074;-75
2022/08/24 12:02:33;;;;;;;0.32;0.32;;;35.00;43.00;;;;;;5113191;28;20055;-81
2022/08/24 12:05:17;;;;;;;0.30;0.30;;;35.70;41.90;;;;;;5113585;28;20057;-80
2022/08/24 12:07:49;;;;;;;0.90;0.40;;;35.20;43.10;;;;;;5113660;28;20053;-79
2022/08/24 12:10:40;;;;;;;1.70;0.50;;;33.80;42.70;;;;;;5113990;28;20024;-80
2022/08/24 12:13:09;;;;;;;0.30;0.30;;;33.00;43.20;;;;;;5095376;28;20023;-80
2022/08/24 12:15:50;;;;;;;1.65;0.20;;;33.60;45.20;;;;;;5113507;28;20016;-79
2022/08/24 12:18:30;;;;;;;0.50;0.50;;;34.80;42.10;;;;;;5113293;28;20024;-78
2022/08/24 12:20:57;;;;;;;0.22;0.22;;;35.90;41.20;;;;;;5113184;28;20043;-76
2022/08/24 12:23:34;;;;;;;0.38;0.32;;;36.40;39.50;;;;;;5095342;28;20027;-78
2022/08/24 12:26:12;;;;;;;0.68;0.30;;;35.80;40.50;;;;;;5113398;28;20023;-75
2022/08/24 12:28:49;;;;;;;0.20;0.20;;;34.90;40.90;;;;;;5113380;28;20051;-74
2022/08/24 12:31:44;;;;;;;0.20;0.20;;;35.00;42.00;;;;;;5094960;28;20106;-76
2022/08/24 12:34:36;;;;;;;0.20;0.20;;;35.00;40.80;;;;;;5113213;28;20048;-80
2022/08/24 12:37:11;;;;;;;0.35;0.20;;;34.60;41.60;;;;;;5053920;28;20057;-75
2022/08/24 12:40:09;;;;;;;0.45;0.43;;;34.80;40.80;;;;;;5113061;28;20055;-76
2022/08/24 12:42:56;;;;;;;0.30;0.30;;;34.60;42.20;;;;;;5094713;28;20396;-74
2022/08/24 12:45:24;;;;;;;0.20;0.20;;;34.80;41.80;;;;;;5113514;28;20024;-76
2022/08/24 12:48:06;;;;;;;1.23;0.20;;;35.20;41.70;;;;;;5116481;28;20021;-78
2022/08/24 12:50:47;;;;;;;0.75;0.75;;;35.20;40.50;;;;;;5098705;28;20731;-78
2022/08/24 12:53:28;;;;;;;0.17;0.15;;;36.00;40.20;;;;;;5117801;28;20012;-80
2022/08/24 12:56:17;;;;;;;0.63;0.63;;;37.10;41.30;;;;;;5117020;28;20023;-80
2022/08/24 12:58:51;;;;;;;15.50;1.55;;;37.90;38.40;;;;;;5116730;28;20024;-79
2022/08/24 13:01:20;;;;;;;0.20;0.20;;;37.40;38.70;;;;;;5116449;28;20047;-79
2022/08/24 13:03:48;;;;;;;;;;;36.40;39.60;;;;;;5117098;28;20483;-81
2022/08/24 13:06:35;;;;;;;;;;;35.70;40.10;;;;;;5098900;28;20352;-77
2022/08/24 13:09:27;;;;;;;1.30;0.43;;;35.50;40.80;;;;;;5116558;28;20364;-78
2022/08/24 13:11:55;;;;;;;0.68;0.68;;;36.20;41.50;;;;;;5116581;28;20024;-76
2022/08/24 13:14:28;;;;;;;1.93;0.63;;;35.80;40.50;;;;;;5116457;28;20016;-78
2022/08/24 13:16:56;;;;;;;14.50;0.90;;;35.70;41.00;;;;;;5116522;28;20419;-80
2022/08/24 13:19:22;;;;;;;1.30;0.28;;;35.50;41.80;;;;;;5116396;28;20482;-74
2022/08/24 13:22:09;;;;;;;0.30;0.30;;;35.40;41.10;;;;;;5116271;28;20039;-75
2022/08/24 13:24:36;;;;;;;0.35;0.35;;;35.50;42.10;;;;;;5097987;28;20024;-75